<?xml version="1.0" encoding="utf-8"?>
<gpx version="1.1" creator="Guru Maps/6.1.2" xmlns:xsi="http://www.w3.org/2001/XMLSchema-instance" xmlns="http://www.topografix.com/GPX/1/1" xmlns:gom="https://gurumaps.app/gpx/v3" xsi:schemaLocation="http://www.topografix.com/GPX/1/1 http://www.topografix.com/GPX/1/1/gpx.xsd https://gurumaps.app/gpx/v3 https://gurumaps.app/gpx/v3/schema.xsd">
 <trk>
  <type>TrackStyle_2196F3C8</type>
  <extensions>
   <gom:time>2026-08-13T21:43:12.383Z</gom:time>
   <line xmlns="http://www.topografix.com/GPX/gpx_style/0/2">
    <color>2196F3</color>
   </line>
  </extensions>
  <trkseg>
   <trkpt lat="59.3505012638" lon="34.6988914196"><ele>163.4</ele><time>2026-08-13T21:43:11.666Z</time><hdop>5.437</hdop><vdop>3.0</vdop><extensions><gom:speed>1.079</gom:speed><gom:course>260.506</gom:course></extensions></trkpt>
   <trkpt lat="59.3504771658" lon="34.6987133041"><ele>165.679</ele><time>2026-08-13T21:43:24.912Z</time><hdop>4.687</hdop><vdop>4.0</vdop><extensions><gom:speed>1.069</gom:speed><gom:course>250.31</gom:course><gom:rel_alt>0.158</gom:rel_alt></extensions></trkpt>
   <trkpt lat="59.3504420037" lon="34.6985375356"><ele>165.164</ele><time>2026-08-13T21:43:34.915Z</time><hdop>4.687</hdop><vdop>4.0</vdop><extensions><gom:speed>1.129</gom:speed><gom:course>244.685</gom:course><gom:rel_alt>-0.29</gom:rel_alt></extensions></trkpt>
   <trkpt lat="59.3504107392" lon="34.6983589173"><ele>167.326</ele><time>2026-08-13T21:43:43.912Z</time><hdop>4.687</hdop><vdop>3.562</vdop><extensions><gom:speed>1.217</gom:speed><gom:course>249.937</gom:course></extensions></trkpt>
   <trkpt lat="59.3503910837" lon="34.69816496"><ele>166.211</ele><time>2026-08-13T21:43:52.912Z</time><hdop>4.687</hdop><vdop>5.062</vdop><extensions><gom:speed>1.199</gom:speed><gom:course>263.522</gom:course><gom:rel_alt>-0.417</gom:rel_alt></extensions></trkpt>
   <trkpt lat="59.3503796424" lon="34.6979856711"><ele>167.497</ele><time>2026-08-13T21:44:21.912Z</time><hdop>4.687</hdop><vdop>4.687</vdop><extensions><gom:speed>0.415</gom:speed><gom:course>308.506</gom:course><gom:rel_alt>0.026</gom:rel_alt></extensions></trkpt>
   <trkpt lat="59.3503582685" lon="34.6978141774"><ele>166.586</ele><time>2026-08-13T21:44:32.916Z</time><hdop>4.687</hdop><vdop>5.25</vdop><extensions><gom:speed>1.304</gom:speed><gom:course>260.533</gom:course><gom:rel_alt>0.145</gom:rel_alt></extensions></trkpt>
   <trkpt lat="59.350345528" lon="34.697630027"><ele>167.586</ele><time>2026-08-13T21:44:41.911Z</time><hdop>4.687</hdop><vdop>5.0</vdop><extensions><gom:speed>1.013</gom:speed><gom:course>264.604</gom:course><gom:rel_alt>0.044</gom:rel_alt></extensions></trkpt>
   <trkpt lat="59.3503081028" lon="34.6974509057"><ele>167.647</ele><time>2026-08-13T21:44:50.911Z</time><hdop>4.687</hdop><vdop>5.125</vdop><extensions><gom:speed>1.261</gom:speed><gom:course>252.123</gom:course><gom:rel_alt>-0.018</gom:rel_alt></extensions></trkpt>
   <trkpt lat="59.3502762097" lon="34.6972814236"><ele>167.553</ele><time>2026-08-13T21:44:58.909Z</time><hdop>4.687</hdop><vdop>4.812</vdop><extensions><gom:speed>1.427</gom:speed><gom:course>251.524</gom:course><gom:rel_alt>-0.129</gom:rel_alt></extensions></trkpt>
   <trkpt lat="59.3502411733" lon="34.6971133664"><ele>168.02</ele><time>2026-08-13T21:45:07.908Z</time><hdop>4.687</hdop><vdop>5.125</vdop><extensions><gom:speed>1.299</gom:speed><gom:course>257.397</gom:course><gom:rel_alt>-0.237</gom:rel_alt></extensions></trkpt>
   <trkpt lat="59.3501938994" lon="34.6969500032"><ele>164.914</ele><time>2026-08-13T21:45:18.911Z</time><hdop>4.687</hdop><vdop>5.187</vdop><extensions><gom:speed>0.781</gom:speed><gom:course>241.834</gom:course><gom:rel_alt>-0.425</gom:rel_alt></extensions></trkpt>
   <trkpt lat="59.3501489305" lon="34.6967820298"><ele>165.496</ele><time>2026-08-13T21:45:28.999Z</time><hdop>4.687</hdop><vdop>4.937</vdop><extensions><gom:speed>1.097</gom:speed><gom:course>233.858</gom:course><gom:rel_alt>-0.346</gom:rel_alt></extensions></trkpt>
   <trkpt lat="59.3501230304" lon="34.6966046687"><ele>164.827</ele><time>2026-08-13T21:45:40.999Z</time><hdop>4.687</hdop><vdop>5.0</vdop><extensions><gom:speed>0.962</gom:speed><gom:course>245.927</gom:course><gom:rel_alt>-0.541</gom:rel_alt></extensions></trkpt>
   <trkpt lat="59.3500628902" lon="34.6964696363"><ele>165.346</ele><time>2026-08-13T21:45:51.999Z</time><hdop>4.687</hdop><vdop>4.937</vdop><extensions><gom:speed>1.009</gom:speed><gom:course>238.016</gom:course><gom:rel_alt>-0.792</gom:rel_alt></extensions></trkpt>
   <trkpt lat="59.3500179213" lon="34.696309961"><ele>164.35</ele><time>2026-08-13T21:46:01.999Z</time><hdop>4.687</hdop><vdop>4.562</vdop><extensions><gom:speed>0.642</gom:speed><gom:course>231.496</gom:course></extensions></trkpt>
   <trkpt lat="59.3499922727" lon="34.6961326"><ele>164.549</ele><time>2026-08-13T21:46:12.999Z</time><hdop>4.687</hdop><vdop>5.312</vdop><extensions><gom:speed>1.107</gom:speed><gom:course>261.022</gom:course><gom:rel_alt>-0.792</gom:rel_alt></extensions></trkpt>
   <trkpt lat="59.3499778558" lon="34.6959559094"><ele>164.445</ele><time>2026-08-13T21:46:22.999Z</time><hdop>4.687</hdop><vdop>5.375</vdop><extensions><gom:speed>1.314</gom:speed><gom:course>262.648</gom:course><gom:rel_alt>-0.766</gom:rel_alt></extensions></trkpt>
   <trkpt lat="59.349969432" lon="34.6957675681"><ele>164.96</ele><time>2026-08-13T21:46:32.999Z</time><hdop>4.687</hdop><vdop>5.125</vdop><extensions><gom:speed>0.985</gom:speed><gom:course>265.977</gom:course><gom:rel_alt>-0.943</gom:rel_alt></extensions></trkpt>
   <trkpt lat="59.3499661212" lon="34.6955845911"><ele>166.113</ele><time>2026-08-13T21:46:46.999Z</time><hdop>4.687</hdop><vdop>4.562</vdop><extensions><gom:speed>1.212</gom:speed><gom:course>271.619</gom:course><gom:rel_alt>-1.062</gom:rel_alt></extensions></trkpt>
   <trkpt lat="59.349959248" lon="34.6953981776"><ele>165.341</ele><time>2026-08-13T21:46:56.999Z</time><hdop>4.687</hdop><vdop>4.812</vdop><extensions><gom:speed>0.997</gom:speed><gom:course>269.075</gom:course><gom:rel_alt>-1.083</gom:rel_alt></extensions></trkpt>
   <trkpt lat="59.3499631875" lon="34.6952105906"><ele>165.615</ele><time>2026-08-13T21:47:07.999Z</time><hdop>4.687</hdop><vdop>4.75</vdop><extensions><gom:speed>1.319</gom:speed><gom:course>269.575</gom:course><gom:rel_alt>-1.019</gom:rel_alt></extensions></trkpt>
   <trkpt lat="59.3499459208" lon="34.6950244285"><ele>164.982</ele><time>2026-08-13T21:47:17.998Z</time><hdop>4.687</hdop><vdop>4.562</vdop><extensions><gom:speed>0.992</gom:speed><gom:course>259.786</gom:course><gom:rel_alt>-1.305</gom:rel_alt></extensions></trkpt>
   <trkpt lat="59.3499158717" lon="34.6948575448"><ele>165.823</ele><time>2026-08-13T21:47:26.000Z</time><hdop>4.687</hdop><vdop>4.937</vdop><extensions><gom:speed>1.114</gom:speed><gom:course>262.917</gom:course><gom:rel_alt>-1.664</gom:rel_alt></extensions></trkpt>
   <trkpt lat="59.3499209846" lon="34.6946711313"><ele>166.374</ele><time>2026-08-13T21:47:36.000Z</time><hdop>4.687</hdop><vdop>5.0</vdop><extensions><gom:speed>1.071</gom:speed><gom:course>266.944</gom:course><gom:rel_alt>-1.593</gom:rel_alt></extensions></trkpt>
   <trkpt lat="59.3499059391" lon="34.6944876515"><ele>166.149</ele><time>2026-08-13T21:47:44.999Z</time><hdop>4.687</hdop><vdop>4.375</vdop><extensions><gom:speed>1.089</gom:speed><gom:course>257.869</gom:course><gom:rel_alt>-1.461</gom:rel_alt></extensions></trkpt>
   <trkpt lat="59.3498825117" lon="34.6943001483"><ele>165.357</ele><time>2026-08-13T21:47:54.999Z</time><hdop>4.687</hdop><vdop>5.0</vdop><extensions><gom:speed>1.066</gom:speed><gom:course>258.05</gom:course><gom:rel_alt>-1.786</gom:rel_alt></extensions></trkpt>
   <trkpt lat="59.3498761414" lon="34.6941050176"><ele>165.888</ele><time>2026-08-13T21:48:05.999Z</time><hdop>4.687</hdop><vdop>5.0</vdop><extensions><gom:speed>0.983</gom:speed><gom:course>254.178</gom:course><gom:rel_alt>-2.029</gom:rel_alt></extensions></trkpt>
   <trkpt lat="59.3498687235" lon="34.6939239685"><ele>165.174</ele><time>2026-08-13T21:48:14.999Z</time><hdop>4.687</hdop><vdop>4.937</vdop><extensions><gom:speed>0.778</gom:speed><gom:course>272.552</gom:course><gom:rel_alt>-2.401</gom:rel_alt></extensions></trkpt>
   <trkpt lat="59.349847643" lon="34.6937336993"><ele>163.832</ele><time>2026-08-13T21:48:27.999Z</time><hdop>4.687</hdop><vdop>4.812</vdop><extensions><gom:speed>0.875</gom:speed><gom:course>254.222</gom:course><gom:rel_alt>-2.222</gom:rel_alt></extensions></trkpt>
   <trkpt lat="59.3499318811" lon="34.6936385647"><ele>163.814</ele><time>2026-08-13T21:49:02.999Z</time><hdop>4.687</hdop><vdop>5.125</vdop><extensions><gom:speed>1.224</gom:speed><gom:course>330.468</gom:course><gom:rel_alt>-2.848</gom:rel_alt></extensions></trkpt>
   <trkpt lat="59.3499998164" lon="34.6935183682"><ele>163.859</ele><time>2026-08-13T21:49:19.998Z</time><hdop>4.687</hdop><vdop>4.375</vdop><extensions><gom:speed>0.876</gom:speed><gom:course>272.866</gom:course><gom:rel_alt>-2.784</gom:rel_alt></extensions></trkpt>
   <trkpt lat="59.3500893771" lon="34.6935725991"><ele>166.445</ele><time>2026-08-13T21:49:33.000Z</time><hdop>4.687</hdop><vdop>4.937</vdop><extensions><gom:speed>0.658</gom:speed><gom:course>328.128</gom:course><gom:rel_alt>-2.893</gom:rel_alt></extensions></trkpt>
   <trkpt lat="59.3501851822" lon="34.6935783826"><ele>164.181</ele><time>2026-08-13T21:50:01.999Z</time><hdop>4.687</hdop><vdop>5.062</vdop><extensions><gom:speed>0.641</gom:speed><gom:course>9.739</gom:course><gom:rel_alt>-3.046</gom:rel_alt></extensions></trkpt>
   <trkpt lat="59.3502761259" lon="34.6935811486"><ele>165.384</ele><time>2026-08-13T21:50:37.999Z</time><hdop>4.687</hdop><vdop>5.125</vdop><extensions><gom:speed>0.776</gom:speed><gom:course>28.965</gom:course><gom:rel_alt>-2.37</gom:rel_alt></extensions></trkpt>
   <trkpt lat="59.3503322846" lon="34.6937285863"><ele>165.957</ele><time>2026-08-13T21:51:09.999Z</time><hdop>4.687</hdop><vdop>4.937</vdop><extensions><gom:speed>0.809</gom:speed><gom:course>50.081</gom:course><gom:rel_alt>-1.001</gom:rel_alt></extensions></trkpt>
   <trkpt lat="59.3503949393" lon="34.6938554883"><ele>166.409</ele><time>2026-08-13T21:51:20.998Z</time><hdop>4.687</hdop><vdop>5.062</vdop><extensions><gom:speed>0.809</gom:speed><gom:course>52.976</gom:course><gom:rel_alt>-0.686</gom:rel_alt></extensions></trkpt>
   <trkpt lat="59.3504692868" lon="34.6939595077"><ele>165.715</ele><time>2026-08-13T21:51:49.000Z</time><hdop>4.687</hdop><vdop>4.937</vdop><extensions><gom:speed>0.789</gom:speed><gom:course>33.019</gom:course><gom:rel_alt>-0.433</gom:rel_alt></extensions></trkpt>
   <trkpt lat="59.3505616135" lon="34.6939944603"><ele>166.265</ele><time>2026-08-13T21:51:59.999Z</time><hdop>4.687</hdop><vdop>5.062</vdop><extensions><gom:speed>0.791</gom:speed><gom:course>10.772</gom:course><gom:rel_alt>-0.158</gom:rel_alt></extensions></trkpt>
   <trkpt lat="59.3506523057" lon="34.6940598391"><ele>165.944</ele><time>2026-08-13T21:52:10.999Z</time><hdop>4.687</hdop><vdop>5.062</vdop><extensions><gom:speed>0.895</gom:speed><gom:course>26.642</gom:course><gom:rel_alt>0.06</gom:rel_alt></extensions></trkpt>
   <trkpt lat="59.3507344064" lon="34.6941425685"><ele>163.883</ele><time>2026-08-13T21:52:22.999Z</time><hdop>4.687</hdop><vdop>5.187</vdop><extensions><gom:speed>0.602</gom:speed><gom:course>32.135</gom:course><gom:rel_alt>-0.118</gom:rel_alt></extensions></trkpt>
   <trkpt lat="59.3508289962" lon="34.6941920217"><ele>164.52</ele><time>2026-08-13T21:52:33.999Z</time><hdop>4.687</hdop><vdop>5.125</vdop><extensions><gom:speed>0.935</gom:speed><gom:course>26.96</gom:course><gom:rel_alt>-0.462</gom:rel_alt></extensions></trkpt>
   <trkpt lat="59.3509187245" lon="34.6942501083"><ele>164.145</ele><time>2026-08-13T21:52:44.999Z</time><hdop>4.687</hdop><vdop>4.687</vdop><extensions><gom:speed>1.041</gom:speed><gom:course>22.373</gom:course><gom:rel_alt>-0.948</gom:rel_alt></extensions></trkpt>
   <trkpt lat="59.351010632" lon="34.6942852285"><ele>163.563</ele><time>2026-08-13T21:52:57.999Z</time><hdop>4.687</hdop><vdop>5.062</vdop><extensions><gom:speed>0.775</gom:speed><gom:course>1.95</gom:course><gom:rel_alt>-1.231</gom:rel_alt></extensions></trkpt>
   <trkpt lat="59.351099103" lon="34.6943235338"><ele>164.098</ele><time>2026-08-13T21:53:09.999Z</time><hdop>4.687</hdop><vdop>4.5</vdop><extensions><gom:speed>0.866</gom:speed><gom:course>1.911</gom:course><gom:rel_alt>-1.21</gom:rel_alt></extensions></trkpt>
   <trkpt lat="59.3511864844" lon="34.6942443248"><ele>166.334</ele><time>2026-08-13T21:53:24.998Z</time><hdop>4.687</hdop><vdop>4.75</vdop><extensions><gom:speed>0.442</gom:speed><gom:course>355.49</gom:course><gom:rel_alt>-1.157</gom:rel_alt></extensions></trkpt>
   <trkpt lat="59.3512731532" lon="34.6941603381"><ele>165.477</ele><time>2026-08-13T21:53:36.998Z</time><hdop>4.687</hdop><vdop>5.125</vdop><extensions><gom:speed>1.018</gom:speed><gom:course>319.783</gom:course><gom:rel_alt>-0.937</gom:rel_alt></extensions></trkpt>
   <trkpt lat="59.3513563017" lon="34.6940798719"><ele>167.457</ele><time>2026-08-13T21:53:52.000Z</time><hdop>4.687</hdop><vdop>4.75</vdop><extensions><gom:speed>0.512</gom:speed><gom:course>328.452</gom:course><gom:rel_alt>-1.001</gom:rel_alt></extensions></trkpt>
   <trkpt lat="59.351443264" lon="34.6940328494"><ele>168.343</ele><time>2026-08-13T21:54:03.000Z</time><hdop>4.687</hdop><vdop>5.062</vdop><extensions><gom:speed>0.848</gom:speed><gom:course>337.131</gom:course><gom:rel_alt>-0.383</gom:rel_alt></extensions></trkpt>
   <trkpt lat="59.3515329922" lon="34.6939850725"><ele>168.514</ele><time>2026-08-13T21:54:13.999Z</time><hdop>4.687</hdop><vdop>4.812</vdop><extensions><gom:speed>0.763</gom:speed><gom:course>333.341</gom:course><gom:rel_alt>0.237</gom:rel_alt></extensions></trkpt>
   <trkpt lat="59.3516211699" lon="34.6940531336"><ele>166.89</ele><time>2026-08-13T21:54:28.999Z</time><hdop>4.687</hdop><vdop>5.25</vdop><extensions><gom:speed>0.662</gom:speed><gom:course>352.205</gom:course><gom:rel_alt>0.166</gom:rel_alt></extensions></trkpt>
   <trkpt lat="59.3517229681" lon="34.6940466795"><ele>165.525</ele><time>2026-08-13T21:54:38.999Z</time><hdop>4.687</hdop><vdop>5.125</vdop><extensions><gom:speed>1.412</gom:speed><gom:course>6.855</gom:course><gom:rel_alt>0.359</gom:rel_alt></extensions></trkpt>
   <trkpt lat="59.3517948429" lon="34.6939236332"><ele>165.81</ele><time>2026-08-13T21:55:04.999Z</time><hdop>4.687</hdop><vdop>4.5</vdop><extensions><gom:speed>0.753</gom:speed><gom:course>316.762</gom:course><gom:rel_alt>-0.198</gom:rel_alt></extensions></trkpt>
   <trkpt lat="59.3518643289" lon="34.6938088011"><ele>166.844</ele><time>2026-08-13T21:55:28.998Z</time><hdop>4.687</hdop><vdop>4.0</vdop><extensions><gom:speed>0.699</gom:speed><gom:course>300.519</gom:course><gom:rel_alt>-0.293</gom:rel_alt></extensions></trkpt>
   <trkpt lat="59.3519489861" lon="34.6938841544"><ele>165.907</ele><time>2026-08-13T21:55:40.998Z</time><hdop>4.687</hdop><vdop>5.0</vdop><extensions><gom:speed>0.315</gom:speed><gom:rel_alt>-0.414</gom:rel_alt></extensions></trkpt>
   <trkpt lat="59.3520336014" lon="34.6939622738"><ele>164.159</ele><time>2026-08-13T21:55:53.000Z</time><hdop>4.687</hdop><vdop>4.187</vdop><extensions><gom:speed>0.692</gom:speed><gom:course>351.37</gom:course><gom:rel_alt>-0.454</gom:rel_alt></extensions></trkpt>
   <trkpt lat="59.3521204379" lon="34.6940505352"><ele>165.983</ele><time>2026-08-13T21:56:01.000Z</time><hdop>4.687</hdop><vdop>5.0</vdop><extensions><gom:speed>1.705</gom:speed><gom:course>50.384</gom:course><gom:rel_alt>-0.755</gom:rel_alt></extensions></trkpt>
   <trkpt lat="59.3522082803" lon="34.6939814683"><ele>168.349</ele><time>2026-08-13T21:56:13.999Z</time><hdop>4.687</hdop><vdop>5.5</vdop><extensions><gom:speed>0.866</gom:speed><gom:course>344.223</gom:course><gom:rel_alt>-0.417</gom:rel_alt></extensions></trkpt>
   <trkpt lat="59.3522988467" lon="34.6939835638"><ele>166.36</ele><time>2026-08-13T21:56:24.999Z</time><hdop>4.687</hdop><vdop>4.687</vdop><extensions><gom:speed>0.919</gom:speed><gom:course>349.441</gom:course><gom:rel_alt>-0.134</gom:rel_alt></extensions></trkpt>
   <trkpt lat="59.3523896647" lon="34.693981636"><ele>167.208</ele><time>2026-08-13T21:56:44.999Z</time><hdop>4.687</hdop><vdop>4.625</vdop><extensions><gom:speed>0.551</gom:speed><gom:course>3.779</gom:course><gom:rel_alt>0.702</gom:rel_alt></extensions></trkpt>
   <trkpt lat="59.3524757468" lon="34.6940468472"><ele>167.229</ele><time>2026-08-13T21:56:54.999Z</time><hdop>4.687</hdop><vdop>5.25</vdop><extensions><gom:speed>0.908</gom:speed><gom:course>20.94</gom:course><gom:rel_alt>0.824</gom:rel_alt></extensions></trkpt>
   <trkpt lat="59.3525643435" lon="34.694100659"><ele>164.647</ele><time>2026-08-13T21:57:09.999Z</time><hdop>4.687</hdop><vdop>5.25</vdop><extensions><gom:speed>0.892</gom:speed><gom:course>0.714</gom:course><gom:rel_alt>0.961</gom:rel_alt></extensions></trkpt>
   <trkpt lat="59.3526604839" lon="34.6941337675"><ele>166.298</ele><time>2026-08-13T22:02:52.999Z</time><hdop>4.687</hdop><vdop>4.312</vdop><extensions><gom:speed>0.859</gom:speed><gom:course>49.137</gom:course><gom:rel_alt>1.215</gom:rel_alt></extensions></trkpt>
   <trkpt lat="59.3527579655" lon="34.6941317558"><ele>164.955</ele><time>2026-08-13T22:03:04.999Z</time><hdop>4.687</hdop><vdop>5.25</vdop><extensions><gom:speed>0.864</gom:speed><gom:course>1.713</gom:course><gom:rel_alt>0.219</gom:rel_alt></extensions></trkpt>
   <trkpt lat="59.3528476938" lon="34.6941447478"><ele>163.036</ele><time>2026-08-13T22:03:17.999Z</time><hdop>4.687</hdop><vdop>5.0</vdop><extensions><gom:speed>0.796</gom:speed><gom:course>34.217</gom:course><gom:rel_alt>-0.335</gom:rel_alt></extensions></trkpt>
   <trkpt lat="59.352920281" lon="34.6942532934"><ele>163.046</ele><time>2026-08-13T22:03:27.999Z</time><hdop>4.687</hdop><vdop>4.75</vdop><extensions><gom:speed>0.744</gom:speed><gom:course>33.865</gom:course><gom:rel_alt>-0.121</gom:rel_alt></extensions></trkpt>
   <trkpt lat="59.3530095902" lon="34.6942957897"><ele>163.687</ele><time>2026-08-13T22:03:46.998Z</time><hdop>4.687</hdop><vdop>4.312</vdop><extensions><gom:speed>0.629</gom:speed><gom:course>8.986</gom:course><gom:rel_alt>-0.361</gom:rel_alt></extensions></trkpt>
   <trkpt lat="59.3530925291" lon="34.6942225319"><ele>166.096</ele><time>2026-08-13T22:04:03.998Z</time><hdop>4.687</hdop><vdop>5.125</vdop><extensions><gom:speed>0.793</gom:speed><gom:course>352.825</gom:course><gom:rel_alt>-0.586</gom:rel_alt></extensions></trkpt>
   <trkpt lat="59.3531830537" lon="34.694246085"><ele>166.588</ele><time>2026-08-13T22:04:16.999Z</time><hdop>4.687</hdop><vdop>5.062</vdop><extensions><gom:speed>0.615</gom:speed><gom:course>3.861</gom:course><gom:rel_alt>-0.525</gom:rel_alt></extensions></trkpt>
   <trkpt lat="59.3532468819" lon="34.6941190154"><ele>168.76</ele><time>2026-08-13T22:04:43.999Z</time><hdop>4.687</hdop><vdop>3.187</vdop><extensions><gom:speed>0.356</gom:speed><gom:course>328.007</gom:course></extensions></trkpt>
   <trkpt lat="59.3533351852" lon="34.6940798719"><ele>170.634</ele><time>2026-08-13T22:05:37.999Z</time><hdop>4.687</hdop><vdop>3.0</vdop><extensions><gom:speed>0.768</gom:speed><gom:course>333.528</gom:course><gom:rel_alt>-0.472</gom:rel_alt></extensions></trkpt>
   <trkpt lat="59.3533116321" lon="34.6939025108"><ele>168.39</ele><time>2026-08-13T22:05:58.998Z</time><hdop>4.687</hdop><vdop>3.875</vdop><extensions><gom:speed>0.659</gom:speed><gom:course>263.505</gom:course><gom:rel_alt>-0.15</gom:rel_alt></extensions></trkpt>
   <trkpt lat="59.3533206007" lon="34.6937250659"><ele>170.319</ele><time>2026-08-13T22:06:36.999Z</time><hdop>4.687</hdop><vdop>5.125</vdop><extensions><gom:speed>0.722</gom:speed><gom:course>282.803</gom:course><gom:rel_alt>0.446</gom:rel_alt></extensions></trkpt>
   <trkpt lat="59.3533176671" lon="34.6935383171"><ele>171.002</ele><time>2026-08-13T22:06:50.999Z</time><hdop>4.687</hdop><vdop>3.937</vdop><extensions><gom:speed>0.907</gom:speed><gom:course>276.821</gom:course><gom:rel_alt>0.877</gom:rel_alt></extensions></trkpt>
   <trkpt lat="59.3533274739" lon="34.6933517359"><ele>169.35</ele><time>2026-08-13T22:07:17.999Z</time><hdop>4.687</hdop><vdop>4.125</vdop><extensions><gom:speed>0.417</gom:speed><gom:course>269.487</gom:course><gom:rel_alt>1.373</gom:rel_alt></extensions></trkpt>
   <trkpt lat="59.3533130151" lon="34.6931672502"><ele>169.472</ele><time>2026-08-13T22:07:52.998Z</time><hdop>4.687</hdop><vdop>3.562</vdop><extensions><gom:speed>0.326</gom:speed><gom:course>310.45</gom:course><gom:rel_alt>1.445</gom:rel_alt></extensions></trkpt>
   <trkpt lat="59.3534201777" lon="34.6931498159"><ele>170.648</ele><time>2026-08-13T22:10:17.998Z</time><hdop>4.687</hdop><vdop>4.812</vdop><extensions><gom:speed>0.221</gom:speed></extensions></trkpt>
   <trkpt lat="59.3533577745" lon="34.6930130232"><ele>168.992</ele><time>2026-08-13T22:10:29.998Z</time><hdop>4.687</hdop><vdop>3.437</vdop><extensions><gom:speed>0.549</gom:speed><gom:course>261.835</gom:course><gom:rel_alt>2.423</gom:rel_alt></extensions></trkpt>
   <trkpt lat="59.3533708921" lon="34.6928127796"><ele>169.276</ele><time>2026-08-13T22:10:46.999Z</time><hdop>4.687</hdop><vdop>3.937</vdop><extensions><gom:speed>0.522</gom:speed><gom:course>331.308</gom:course><gom:rel_alt>2.586</gom:rel_alt></extensions></trkpt>
   <trkpt lat="59.353287576" lon="34.6927117776"><ele>169.2</ele><time>2026-08-13T22:11:11.999Z</time><hdop>4.687</hdop><vdop>4.0</vdop><extensions><gom:speed>0.657</gom:speed><gom:course>225.102</gom:course><gom:rel_alt>2.362</gom:rel_alt></extensions></trkpt>
   <trkpt lat="59.3532804933" lon="34.6925355062"><ele>170.143</ele><time>2026-08-13T22:11:25.999Z</time><hdop>4.687</hdop><vdop>3.937</vdop><extensions><gom:speed>0.233</gom:speed><gom:course>284.325</gom:course><gom:rel_alt>2.301</gom:rel_alt></extensions></trkpt>
   <trkpt lat="59.3532478458" lon="34.6923544571"><ele>171.382</ele><time>2026-08-13T22:11:46.999Z</time><hdop>4.687</hdop><vdop>4.125</vdop><extensions><gom:speed>0.322</gom:speed><gom:course>276.552</gom:course><gom:rel_alt>2.359</gom:rel_alt></extensions></trkpt>
   <trkpt lat="59.3532603348" lon="34.6921667863"><ele>171.053</ele><time>2026-08-13T22:11:57.999Z</time><hdop>4.687</hdop><vdop>4.187</vdop><extensions><gom:speed>0.663</gom:speed><gom:course>274.75</gom:course><gom:rel_alt>2.478</gom:rel_alt></extensions></trkpt>
   <trkpt lat="59.3532349377" lon="34.6919921074"><ele>171.092</ele><time>2026-08-13T22:12:26.998Z</time><hdop>4.687</hdop><vdop>4.0</vdop><extensions><gom:speed>0.462</gom:speed><gom:course>303.15</gom:course><gom:rel_alt>2.864</gom:rel_alt></extensions></trkpt>
   <trkpt lat="59.3533307428" lon="34.691977942"><ele>170.966</ele><time>2026-08-13T22:13:18.999Z</time><hdop>4.687</hdop><vdop>4.687</vdop><extensions><gom:speed>0.966</gom:speed><gom:course>331.676</gom:course><gom:rel_alt>3.545</gom:rel_alt></extensions></trkpt>
   <trkpt lat="59.3534255841" lon="34.691952461"><ele>174.421</ele><time>2026-08-13T22:13:48.999Z</time><hdop>4.687</hdop><vdop>3.875</vdop><extensions><gom:speed>0.654</gom:speed><gom:course>352.051</gom:course></extensions></trkpt>
   <trkpt lat="59.3535180365" lon="34.6918988168"><ele>174.688</ele><time>2026-08-13T22:14:16.998Z</time><hdop>4.687</hdop><vdop>4.125</vdop><extensions><gom:speed>0.204</gom:speed><gom:course>37.48</gom:course><gom:rel_alt>2.309</gom:rel_alt></extensions></trkpt>
   <trkpt lat="59.3535603651" lon="34.6917431649"><ele>171.46</ele><time>2026-08-13T22:14:51.000Z</time><hdop>4.687</hdop><vdop>4.062</vdop><extensions><gom:speed>0.268</gom:speed><gom:course>265.444</gom:course><gom:rel_alt>1.289</gom:rel_alt></extensions></trkpt>
   <trkpt lat="59.3536329943" lon="34.6916132454"><ele>172.052</ele><time>2026-08-13T22:15:19.999Z</time><hdop>4.687</hdop><vdop>3.0</vdop><extensions><gom:speed>0.798</gom:speed><gom:course>329.589</gom:course><gom:rel_alt>1.278</gom:rel_alt></extensions></trkpt>
   <trkpt lat="59.3535814036" lon="34.691460108"><ele>171.373</ele><time>2026-08-13T22:15:52.999Z</time><hdop>4.687</hdop><vdop>3.875</vdop><extensions><gom:speed>0.59</gom:speed><gom:course>247.459</gom:course><gom:rel_alt>1.191</gom:rel_alt></extensions></trkpt>
   <trkpt lat="59.3535177012" lon="34.691319795"><ele>172.592</ele><time>2026-08-13T22:18:10.999Z</time><hdop>4.687</hdop><vdop>3.75</vdop><extensions><gom:speed>0.597</gom:speed><gom:course>257.155</gom:course><gom:rel_alt>1.989</gom:rel_alt></extensions></trkpt>
   <trkpt lat="59.3535938089" lon="34.6911151927"><ele>171.405</ele><time>2026-08-13T22:18:30.998Z</time><hdop>4.687</hdop><vdop>3.687</vdop><extensions><gom:speed>1.981</gom:speed><gom:course>311.527</gom:course><gom:rel_alt>3.014</gom:rel_alt></extensions></trkpt>
   <trkpt lat="59.3536490037" lon="34.6909508236"><ele>171.523</ele><time>2026-08-13T22:19:06.999Z</time><hdop>4.687</hdop><vdop>4.0</vdop><extensions><gom:speed>0.746</gom:speed><gom:course>263.752</gom:course><gom:rel_alt>3.022</gom:rel_alt></extensions></trkpt>
   <trkpt lat="59.3536847944" lon="34.6907609735"><ele>169.86</ele><time>2026-08-13T22:19:31.999Z</time><hdop>4.687</hdop><vdop>4.375</vdop><extensions><gom:speed>0.992</gom:speed><gom:course>296.695</gom:course><gom:rel_alt>3.033</gom:rel_alt></extensions></trkpt>
   <trkpt lat="59.3537480359" lon="34.6906205766"><ele>168.944</ele><time>2026-08-13T22:19:54.999Z</time><hdop>4.687</hdop><vdop>4.312</vdop><extensions><gom:speed>0.418</gom:speed><gom:course>334.895</gom:course><gom:rel_alt>3.038</gom:rel_alt></extensions></trkpt>
   <trkpt lat="59.3538259457" lon="34.69052452"><ele>171.536</ele><time>2026-08-13T22:20:23.999Z</time><hdop>4.687</hdop><vdop>3.75</vdop><extensions><gom:speed>0.357</gom:speed><gom:course>317.147</gom:course><gom:rel_alt>2.219</gom:rel_alt></extensions></trkpt>
   <trkpt lat="59.3537521849" lon="34.690416142"><ele>170.365</ele><time>2026-08-13T22:21:16.999Z</time><hdop>4.687</hdop><vdop>3.062</vdop><extensions><gom:speed>0.111</gom:speed><gom:course>17.078</gom:course><gom:rel_alt>1.64</gom:rel_alt></extensions></trkpt>
   <trkpt lat="59.3536825732" lon="34.6902839594"><ele>170.418</ele><time>2026-08-13T22:21:31.999Z</time><hdop>4.687</hdop><vdop>3.0</vdop><extensions><gom:speed>0.041</gom:speed><gom:course>28.202</gom:course><gom:rel_alt>1.466</gom:rel_alt></extensions></trkpt>
   <trkpt lat="59.3536295996" lon="34.6901260443"><ele>171.121</ele><time>2026-08-13T22:22:01.999Z</time><hdop>4.687</hdop><vdop>3.625</vdop><extensions><gom:speed>0.626</gom:speed><gom:course>201.371</gom:course><gom:rel_alt>1.556</gom:rel_alt></extensions></trkpt>
   <trkpt lat="59.3536324494" lon="34.689936278"><ele>175.419</ele><time>2026-08-13T22:22:34.998Z</time><hdop>4.687</hdop><vdop>4.062</vdop><extensions><gom:speed>0.032</gom:speed><gom:course>208.897</gom:course></extensions></trkpt>
   <trkpt lat="59.3535767936" lon="34.689776016"><ele>171.929</ele><time>2026-08-13T22:22:59.998Z</time><hdop>4.687</hdop><vdop>3.312</vdop><extensions><gom:speed>0.795</gom:speed><gom:course>263.23</gom:course><gom:rel_alt>1.519</gom:rel_alt></extensions></trkpt>
   <trkpt lat="59.3535494267" lon="34.6895954698"><ele>172.709</ele><time>2026-08-13T22:23:28.999Z</time><hdop>4.687</hdop><vdop>3.875</vdop><extensions><gom:speed>0.503</gom:speed><gom:course>250.272</gom:course><gom:rel_alt>1.4</gom:rel_alt></extensions></trkpt>
   <trkpt lat="59.3534723132" lon="34.6894846611"><ele>172.522</ele><time>2026-08-13T22:23:42.999Z</time><hdop>4.687</hdop><vdop>3.437</vdop><extensions><gom:speed>0.734</gom:speed><gom:course>207.078</gom:course><gom:rel_alt>1.44</gom:rel_alt></extensions></trkpt>
   <trkpt lat="59.3535126301" lon="34.6893147599"><ele>169.711</ele><time>2026-08-13T22:24:16.999Z</time><hdop>4.687</hdop><vdop>3.375</vdop><extensions><gom:speed>0.191</gom:speed><gom:course>244.4</gom:course><gom:rel_alt>1.765</gom:rel_alt></extensions></trkpt>
   <trkpt lat="59.3535528633" lon="34.6891342137"><ele>170.762</ele><time>2026-08-13T22:24:32.999Z</time><hdop>4.687</hdop><vdop>4.0</vdop><extensions><gom:speed>0.541</gom:speed><gom:course>288.565</gom:course><gom:rel_alt>1.765</gom:rel_alt></extensions></trkpt>
   <trkpt lat="59.3536105308" lon="34.6889640611"><ele>173.102</ele><time>2026-08-13T22:25:18.000Z</time><hdop>4.687</hdop><vdop>3.062</vdop><extensions><gom:speed>0.013</gom:speed><gom:course>87.392</gom:course><gom:rel_alt>1.807</gom:rel_alt></extensions></trkpt>
   <trkpt lat="59.3536738979" lon="34.688834393"><ele>171.674</ele><time>2026-08-13T22:26:06.999Z</time><hdop>4.687</hdop><vdop>4.75</vdop><extensions><gom:speed>0.152</gom:speed><gom:course>35.486</gom:course><gom:rel_alt>2.156</gom:rel_alt></extensions></trkpt>
   <trkpt lat="59.3537370137" lon="34.6887017913"><ele>171.003</ele><time>2026-08-13T22:26:31.999Z</time><hdop>4.687</hdop><vdop>3.937</vdop><extensions><gom:speed>0.0</gom:speed><gom:course>7.201</gom:course><gom:rel_alt>2.071</gom:rel_alt></extensions></trkpt>
   <trkpt lat="59.353794765" lon="34.6885580417"><ele>169.852</ele><time>2026-08-13T22:26:56.998Z</time><hdop>4.687</hdop><vdop>3.625</vdop><extensions><gom:speed>0.204</gom:speed><gom:course>307.616</gom:course></extensions></trkpt>
   <trkpt lat="59.3537918732" lon="34.6887370791"><ele>173.92</ele><time>2026-08-13T22:28:40.999Z</time><hdop>4.687</hdop><vdop>3.812</vdop><extensions><gom:speed>0.017</gom:speed><gom:course>266.719</gom:course></extensions></trkpt>
   <trkpt lat="59.35377205" lon="34.6885576226"><ele>171.98</ele><time>2026-08-13T22:29:54.999Z</time><hdop>4.687</hdop><vdop>3.875</vdop><extensions><gom:speed>0.112</gom:speed><gom:course>102.009</gom:course><gom:rel_alt>1.997</gom:rel_alt></extensions></trkpt>
   <trkpt lat="59.3538518038" lon="34.6884303015"><ele>172.674</ele><time>2026-08-13T22:30:08.999Z</time><hdop>4.687</hdop><vdop>4.0</vdop><extensions><gom:speed>0.43</gom:speed><gom:course>325.771</gom:course><gom:rel_alt>2.327</gom:rel_alt></extensions></trkpt>
   <trkpt lat="59.3538424161" lon="34.6882527728"><ele>172.341</ele><time>2026-08-13T22:30:28.999Z</time><hdop>4.687</hdop><vdop>4.375</vdop><extensions><gom:speed>0.352</gom:speed><gom:course>275.371</gom:course><gom:rel_alt>2.755</gom:rel_alt></extensions></trkpt>
   <trkpt lat="59.3538334894" lon="34.6880516071"><ele>171.162</ele><time>2026-08-13T22:32:06.999Z</time><hdop>4.687</hdop><vdop>4.187</vdop><extensions><gom:speed>0.279</gom:speed><gom:course>254.87</gom:course><gom:rel_alt>2.763</gom:rel_alt></extensions></trkpt>
   <trkpt lat="59.3537604411" lon="34.6879394572"><ele>171.463</ele><time>2026-08-13T22:32:37.999Z</time><hdop>4.687</hdop><vdop>3.937</vdop><extensions><gom:speed>0.511</gom:speed><gom:course>230.76</gom:course><gom:rel_alt>2.293</gom:rel_alt></extensions></trkpt>
   <trkpt lat="59.35381748" lon="34.6877962105"><ele>169.356</ele><time>2026-08-13T22:33:25.998Z</time><hdop>4.687</hdop><vdop>3.812</vdop><extensions><gom:speed>0.622</gom:speed><gom:course>288.752</gom:course><gom:rel_alt>2.264</gom:rel_alt></extensions></trkpt>
   <trkpt lat="59.3538673942" lon="34.6876472641"><ele>169.795</ele><time>2026-08-13T22:33:42.999Z</time><hdop>4.687</hdop><vdop>3.0</vdop><extensions><gom:speed>0.402</gom:speed><gom:course>14.254</gom:course><gom:rel_alt>2.23</gom:rel_alt></extensions></trkpt>
   <trkpt lat="59.3539375088" lon="34.6874932047"><ele>170.886</ele><time>2026-08-13T22:34:06.999Z</time><hdop>4.687</hdop><vdop>3.562</vdop><extensions><gom:speed>0.787</gom:speed><gom:course>307.402</gom:course><gom:rel_alt>2.206</gom:rel_alt></extensions></trkpt>
   <trkpt lat="59.353985118" lon="34.6873371337"><ele>170.074</ele><time>2026-08-13T22:34:39.999Z</time><hdop>4.687</hdop><vdop>3.562</vdop><extensions><gom:speed>0.063</gom:speed><gom:course>170.29</gom:course><gom:rel_alt>1.883</gom:rel_alt></extensions></trkpt>
   <trkpt lat="59.3540043545" lon="34.6871579286"><ele>170.501</ele><time>2026-08-13T22:35:27.998Z</time><hdop>4.687</hdop><vdop>4.625</vdop><extensions><gom:speed>0.191</gom:speed><gom:course>198.245</gom:course><gom:rel_alt>1.529</gom:rel_alt></extensions></trkpt>
   <trkpt lat="59.3539228405" lon="34.6870446053"><ele>173.065</ele><time>2026-08-13T22:35:45.000Z</time><hdop>4.687</hdop><vdop>4.375</vdop><extensions><gom:speed>0.608</gom:speed><gom:course>227.596</gom:course><gom:rel_alt>1.482</gom:rel_alt></extensions></trkpt>
   <trkpt lat="59.3538396082" lon="34.6869643904"><ele>171.644</ele><time>2026-08-13T22:36:16.999Z</time><hdop>4.687</hdop><vdop>4.062</vdop><extensions><gom:speed>0.67</gom:speed><gom:course>203.969</gom:course><gom:rel_alt>1.392</gom:rel_alt></extensions></trkpt>
   <trkpt lat="59.3538399015" lon="34.6867761329"><ele>170.443</ele><time>2026-08-13T22:36:55.999Z</time><hdop>4.687</hdop><vdop>3.937</vdop><extensions><gom:speed>0.378</gom:speed><gom:course>188.55</gom:course><gom:rel_alt>0.972</gom:rel_alt></extensions></trkpt>
   <trkpt lat="59.3538966051" lon="34.686624169"><ele>170.31</ele><time>2026-08-13T22:37:25.998Z</time><hdop>4.687</hdop><vdop>3.375</vdop><extensions><gom:speed>1.235</gom:speed><gom:course>262.033</gom:course><gom:rel_alt>0.988</gom:rel_alt></extensions></trkpt>
   <trkpt lat="59.3539839026" lon="34.6867093291"><ele>169.438</ele><time>2026-08-13T22:37:48.998Z</time><hdop>4.687</hdop><vdop>3.562</vdop><extensions><gom:speed>0.04</gom:speed><gom:course>111.078</gom:course><gom:rel_alt>0.99</gom:rel_alt></extensions></trkpt>
   <trkpt lat="59.3539743892" lon="34.6865335606"><ele>173.771</ele><time>2026-08-13T22:38:12.999Z</time><hdop>4.687</hdop><vdop>3.812</vdop><extensions><gom:speed>0.036</gom:speed><gom:course>357.242</gom:course><gom:rel_alt>0.924</gom:rel_alt></extensions></trkpt>
   <trkpt lat="59.3540019656" lon="34.6863520086"><ele>170.766</ele><time>2026-08-13T22:38:36.999Z</time><hdop>4.687</hdop><vdop>4.25</vdop><extensions><gom:speed>0.366</gom:speed><gom:course>316.169</gom:course><gom:rel_alt>1.228</gom:rel_alt></extensions></trkpt>
   <trkpt lat="59.3539596789" lon="34.6861955185"><ele>174.687</ele><time>2026-08-13T22:40:44.999Z</time><hdop>4.687</hdop><vdop>3.0</vdop><extensions><gom:speed>0.695</gom:speed><gom:course>256.699</gom:course><gom:rel_alt>1.59</gom:rel_alt></extensions></trkpt>
   <trkpt lat="59.3540414863" lon="34.6860837877"><ele>173.621</ele><time>2026-08-13T22:40:57.999Z</time><hdop>4.687</hdop><vdop>4.437</vdop><extensions><gom:speed>0.205</gom:speed><gom:course>295.558</gom:course><gom:rel_alt>1.915</gom:rel_alt></extensions></trkpt>
   <trkpt lat="59.353978622" lon="34.6862126175"><ele>175.331</ele><time>2026-08-13T22:41:25.999Z</time><hdop>4.687</hdop><vdop>3.0</vdop><extensions><gom:speed>0.0</gom:speed><gom:course>340.762</gom:course><gom:rel_alt>1.54</gom:rel_alt></extensions></trkpt>
   <trkpt lat="59.3539816814" lon="34.686008602"><ele>173.366</ele><time>2026-08-13T22:42:33.999Z</time><hdop>4.687</hdop><vdop>4.187</vdop><extensions><gom:speed>0.83</gom:speed><gom:course>297.431</gom:course><gom:rel_alt>1.968</gom:rel_alt></extensions></trkpt>
   <trkpt lat="59.3538983234" lon="34.685933584"><ele>171.562</ele><time>2026-08-13T22:43:14.999Z</time><hdop>4.687</hdop><vdop>4.125</vdop><extensions><gom:speed>0.11</gom:speed><gom:course>208.699</gom:course><gom:rel_alt>2.277</gom:rel_alt></extensions></trkpt>
   <trkpt lat="59.3539426637" lon="34.685778435"><ele>171.77</ele><time>2026-08-13T22:43:23.999Z</time><hdop>4.687</hdop><vdop>4.125</vdop><extensions><gom:speed>1.436</gom:speed><gom:course>312.318</gom:course><gom:rel_alt>2.401</gom:rel_alt></extensions></trkpt>
   <trkpt lat="59.3538863373" lon="34.6856397145"><ele>174.446</ele><time>2026-08-13T22:43:50.998Z</time><hdop>4.687</hdop><vdop>4.25</vdop><extensions><gom:speed>0.326</gom:speed><gom:course>226.536</gom:course><gom:rel_alt>2.901</gom:rel_alt></extensions></trkpt>
   <trkpt lat="59.3538202879" lon="34.6855073642"><ele>173.355</ele><time>2026-08-13T22:44:48.999Z</time><hdop>4.687</hdop><vdop>4.25</vdop><extensions><gom:speed>0.235</gom:speed><gom:course>311.813</gom:course><gom:rel_alt>2.845</gom:rel_alt></extensions></trkpt>
   <trkpt lat="59.35376371" lon="34.6853656262"><ele>172.886</ele><time>2026-08-13T22:45:12.999Z</time><hdop>4.687</hdop><vdop>4.812</vdop><extensions><gom:speed>0.323</gom:speed><gom:course>279.864</gom:course></extensions></trkpt>
   <trkpt lat="59.3536977864" lon="34.6852316834"><ele>171.998</ele><time>2026-08-13T22:46:04.998Z</time><hdop>4.687</hdop><vdop>4.687</vdop><extensions><gom:speed>0.474</gom:speed><gom:course>237.582</gom:course><gom:rel_alt>2.481</gom:rel_alt></extensions></trkpt>
   <trkpt lat="59.3537874727" lon="34.6851271611"><ele>171.561</ele><time>2026-08-13T22:46:57.999Z</time><hdop>4.687</hdop><vdop>5.187</vdop><extensions><gom:speed>1.335</gom:speed><gom:course>320.344</gom:course></extensions></trkpt>
   <trkpt lat="59.3537989559" lon="34.6849519793"><ele>174.692</ele><time>2026-08-13T22:47:47.998Z</time><hdop>4.687</hdop><vdop>5.375</vdop><extensions><gom:speed>0.173</gom:speed><gom:course>273.052</gom:course><gom:rel_alt>2.256</gom:rel_alt></extensions></trkpt>
   <trkpt lat="59.3538728005" lon="34.6848447748"><ele>174.847</ele><time>2026-08-13T22:48:22.999Z</time><hdop>4.687</hdop><vdop>4.937</vdop><extensions><gom:speed>0.2</gom:speed><gom:course>353.831</gom:course><gom:rel_alt>2.079</gom:rel_alt></extensions></trkpt>
   <trkpt lat="59.353961481" lon="34.6847599499"><ele>175.096</ele><time>2026-08-13T22:48:46.999Z</time><hdop>4.687</hdop><vdop>4.687</vdop><extensions><gom:speed>0.651</gom:speed><gom:course>318.108</gom:course><gom:rel_alt>2.766</gom:rel_alt></extensions></trkpt>
   <trkpt lat="59.3539541469" lon="34.6845773921"><ele>176.138</ele><time>2026-08-13T22:49:40.999Z</time><hdop>4.687</hdop><vdop>4.187</vdop><extensions><gom:speed>0.572</gom:speed><gom:course>246.168</gom:course><gom:rel_alt>3.139</gom:rel_alt></extensions></trkpt>
   <trkpt lat="59.3539806756" lon="34.68440791"><ele>173.202</ele><time>2026-08-13T22:50:31.999Z</time><hdop>4.687</hdop><vdop>5.0</vdop><extensions><gom:speed>0.0</gom:speed><gom:course>277.952</gom:course><gom:rel_alt>2.526</gom:rel_alt></extensions></trkpt>
   <trkpt lat="59.3540366667" lon="34.6842686027"><ele>174.878</ele><time>2026-08-13T22:50:50.999Z</time><hdop>4.687</hdop><vdop>5.625</vdop><extensions><gom:speed>0.499</gom:speed><gom:course>299.233</gom:course><gom:rel_alt>2.486</gom:rel_alt></extensions></trkpt>
   <trkpt lat="59.3540919454" lon="34.6841170579"><ele>175.34</ele><time>2026-08-13T22:51:29.999Z</time><hdop>4.687</hdop><vdop>4.687</vdop><extensions><gom:speed>0.158</gom:speed><gom:course>272.789</gom:course><gom:rel_alt>2.396</gom:rel_alt></extensions></trkpt>
   <trkpt lat="59.3541562765" lon="34.6842468936"><ele>177.029</ele><time>2026-08-13T22:53:11.999Z</time><hdop>4.687</hdop><vdop>4.75</vdop><extensions><gom:speed>0.212</gom:speed><gom:course>55.284</gom:course><gom:rel_alt>2.071</gom:rel_alt></extensions></trkpt>
   <trkpt lat="59.3540781571" lon="34.6841446344"><ele>181.171</ele><time>2026-08-13T22:54:18.998Z</time><hdop>4.687</hdop><vdop>5.312</vdop><extensions><gom:speed>0.736</gom:speed><gom:course>172.57</gom:course><gom:rel_alt>2.005</gom:rel_alt></extensions></trkpt>
   <trkpt lat="59.3541546839" lon="34.6842869591"><ele>175.119</ele><time>2026-08-13T22:54:52.999Z</time><hdop>4.687</hdop><vdop>4.437</vdop><extensions><gom:speed>0.01</gom:speed><gom:course>127.185</gom:course><gom:rel_alt>1.934</gom:rel_alt></extensions></trkpt>
   <trkpt lat="59.3542304563" lon="34.6841733843"><ele>176.806</ele><time>2026-08-13T22:57:18.999Z</time><hdop>4.687</hdop><vdop>4.875</vdop><extensions><gom:speed>0.618</gom:speed><gom:course>313.895</gom:course><gom:rel_alt>2.821</gom:rel_alt></extensions></trkpt>
   <trkpt lat="59.3542447475" lon="34.6839909941"><ele>174.288</ele><time>2026-08-13T22:57:32.999Z</time><hdop>4.687</hdop><vdop>4.937</vdop><extensions><gom:speed>0.609</gom:speed><gom:course>273.827</gom:course><gom:rel_alt>2.676</gom:rel_alt></extensions></trkpt>
   <trkpt lat="59.354325549" lon="34.6838904951"><ele>175.536</ele><time>2026-08-13T22:57:57.999Z</time><hdop>4.687</hdop><vdop>5.0</vdop><extensions><gom:speed>0.137</gom:speed><gom:course>275.184</gom:course></extensions></trkpt>
   <trkpt lat="59.3543765529" lon="34.683741381"><ele>173.126</ele><time>2026-08-13T22:58:29.998Z</time><hdop>4.687</hdop><vdop>4.375</vdop><extensions><gom:speed>0.189</gom:speed><gom:course>319.344</gom:course><gom:rel_alt>2.555</gom:rel_alt></extensions></trkpt>
   <trkpt lat="59.3544124693" lon="34.6835633494"><ele>171.983</ele><time>2026-08-13T22:58:59.999Z</time><hdop>4.687</hdop><vdop>4.875</vdop><extensions><gom:speed>0.442</gom:speed><gom:course>284.544</gom:course><gom:rel_alt>2.415</gom:rel_alt></extensions></trkpt>
   <trkpt lat="59.3544708074" lon="34.6834263053"><ele>173.006</ele><time>2026-08-13T22:59:29.999Z</time><hdop>4.687</hdop><vdop>5.187</vdop><extensions><gom:speed>0.291</gom:speed><gom:course>295.333</gom:course><gom:rel_alt>2.502</gom:rel_alt></extensions></trkpt>
   <trkpt lat="59.3545147705" lon="34.6832692284"><ele>172.575</ele><time>2026-08-13T22:59:57.999Z</time><hdop>4.687</hdop><vdop>5.437</vdop><extensions><gom:speed>0.204</gom:speed><gom:course>239.626</gom:course><gom:rel_alt>2.483</gom:rel_alt></extensions></trkpt>
   <trkpt lat="59.3545278462" lon="34.6830828987"><ele>175.324</ele><time>2026-08-13T23:00:20.999Z</time><hdop>4.687</hdop><vdop>5.187</vdop><extensions><gom:speed>0.742</gom:speed><gom:course>260.577</gom:course><gom:rel_alt>2.38</gom:rel_alt></extensions></trkpt>
   <trkpt lat="59.3545410897" lon="34.68290076"><ele>172.109</ele><time>2026-08-13T23:00:53.998Z</time><hdop>4.687</hdop><vdop>5.812</vdop><extensions><gom:speed>0.496</gom:speed><gom:course>280.457</gom:course><gom:rel_alt>2.753</gom:rel_alt></extensions></trkpt>
   <trkpt lat="59.3545755393" lon="34.6827319484"><ele>170.628</ele><time>2026-08-13T23:02:01.999Z</time><hdop>4.687</hdop><vdop>4.812</vdop><extensions><gom:speed>0.329</gom:speed><gom:course>326.579</gom:course><gom:rel_alt>2.734</gom:rel_alt></extensions></trkpt>
   <trkpt lat="59.3546302312" lon="34.6825884503"><ele>174.375</ele><time>2026-08-13T23:02:33.999Z</time><hdop>4.687</hdop><vdop>4.875</vdop><extensions><gom:speed>0.588</gom:speed><gom:course>312.302</gom:course><gom:rel_alt>2.816</gom:rel_alt></extensions></trkpt>
   <trkpt lat="59.3546290158" lon="34.6824045513"><ele>172.964</ele><time>2026-08-13T23:05:17.000Z</time><hdop>4.687</hdop><vdop>5.125</vdop><extensions><gom:speed>0.53</gom:speed><gom:course>259.781</gom:course><gom:rel_alt>2.774</gom:rel_alt></extensions></trkpt>
   <trkpt lat="59.3546846717" lon="34.6822583709"><ele>170.523</ele><time>2026-08-13T23:05:42.999Z</time><hdop>4.687</hdop><vdop>4.937</vdop><extensions><gom:speed>0.377</gom:speed><gom:course>315.026</gom:course><gom:rel_alt>2.832</gom:rel_alt></extensions></trkpt>
   <trkpt lat="59.3546653933" lon="34.682075394"><ele>171.315</ele><time>2026-08-13T23:06:27.999Z</time><hdop>4.687</hdop><vdop>4.75</vdop><extensions><gom:speed>0.481</gom:speed><gom:course>175.564</gom:course><gom:rel_alt>2.441</gom:rel_alt></extensions></trkpt>
   <trkpt lat="59.3546221846" lon="34.6819095999"><ele>174.547</ele><time>2026-08-13T23:07:11.998Z</time><hdop>4.687</hdop><vdop>5.0</vdop><extensions><gom:speed>0.448</gom:speed><gom:course>318.888</gom:course><gom:rel_alt>3.149</gom:rel_alt></extensions></trkpt>
   <trkpt lat="59.3546610347" lon="34.6817443926"><ele>177.083</ele><time>2026-08-13T23:07:36.999Z</time><hdop>4.687</hdop><vdop>5.187</vdop><extensions><gom:speed>0.584</gom:speed><gom:course>299.903</gom:course><gom:rel_alt>3.324</gom:rel_alt></extensions></trkpt>
   <trkpt lat="59.3546399123" lon="34.6815559674"><ele>175.871</ele><time>2026-08-13T23:08:06.999Z</time><hdop>4.687</hdop><vdop>5.312</vdop><extensions><gom:speed>0.533</gom:speed><gom:course>266.477</gom:course></extensions></trkpt>
   <trkpt lat="59.3546764574" lon="34.6813835517"><ele>175.542</ele><time>2026-08-13T23:08:26.999Z</time><hdop>4.687</hdop><vdop>5.25</vdop><extensions><gom:speed>0.508</gom:speed><gom:course>316.257</gom:course><gom:rel_alt>3.168</gom:rel_alt></extensions></trkpt>
   <trkpt lat="59.3546195862" lon="34.6812452503"><ele>175.454</ele><time>2026-08-13T23:08:45.999Z</time><hdop>4.687</hdop><vdop>5.0</vdop><extensions><gom:speed>0.286</gom:speed><gom:course>246.196</gom:course><gom:rel_alt>2.766</gom:rel_alt></extensions></trkpt>
   <trkpt lat="59.354585849" lon="34.6810745947"><ele>177.25</ele><time>2026-08-13T23:09:08.998Z</time><hdop>4.687</hdop><vdop>5.125</vdop><extensions><gom:speed>0.438</gom:speed><gom:course>259.061</gom:course><gom:rel_alt>2.7</gom:rel_alt></extensions></trkpt>
   <trkpt lat="59.3545958235" lon="34.6808935456"><ele>176.813</ele><time>2026-08-13T23:09:25.999Z</time><hdop>4.687</hdop><vdop>5.5</vdop><extensions><gom:speed>0.598</gom:speed><gom:course>313.724</gom:course><gom:rel_alt>2.626</gom:rel_alt></extensions></trkpt>
   <trkpt lat="59.3546746134" lon="34.6807925437"><ele>174.694</ele><time>2026-08-13T23:09:52.999Z</time><hdop>4.687</hdop><vdop>5.875</vdop><extensions><gom:speed>0.611</gom:speed><gom:course>317.218</gom:course><gom:rel_alt>2.742</gom:rel_alt></extensions></trkpt>
   <trkpt lat="59.3546284291" lon="34.680637227"><ele>180.625</ele><time>2026-08-13T23:11:21.998Z</time><hdop>4.687</hdop><vdop>5.625</vdop><extensions><gom:speed>0.435</gom:speed><gom:course>235.715</gom:course><gom:rel_alt>2.512</gom:rel_alt></extensions></trkpt>
   <trkpt lat="59.3546361404" lon="34.6804582734"><ele>179.665</ele><time>2026-08-13T23:11:51.999Z</time><hdop>4.687</hdop><vdop>5.187</vdop><extensions><gom:speed>0.432</gom:speed><gom:course>299.25</gom:course><gom:rel_alt>2.56</gom:rel_alt></extensions></trkpt>
   <trkpt lat="59.3546793072" lon="34.6803037111"><ele>172.821</ele><time>2026-08-13T23:12:42.999Z</time><hdop>4.687</hdop><vdop>4.812</vdop><extensions><gom:speed>0.0</gom:speed><gom:course>278.98</gom:course><gom:rel_alt>2.52</gom:rel_alt></extensions></trkpt>
   <trkpt lat="59.354657179" lon="34.680128194"><ele>179.151</ele><time>2026-08-13T23:13:40.000Z</time><hdop>4.687</hdop><vdop>4.437</vdop><extensions><gom:speed>0.13</gom:speed><gom:course>174.179</gom:course><gom:rel_alt>2.578</gom:rel_alt></extensions></trkpt>
   <trkpt lat="59.3546547063" lon="34.67994572"><ele>176.2</ele><time>2026-08-13T23:14:06.999Z</time><hdop>4.687</hdop><vdop>5.062</vdop><extensions><gom:speed>0.228</gom:speed><gom:course>174.179</gom:course><gom:rel_alt>2.581</gom:rel_alt></extensions></trkpt>
   <trkpt lat="59.3547249886" lon="34.6798171416"><ele>171.859</ele><time>2026-08-13T23:18:30.999Z</time><hdop>4.687</hdop><vdop>5.375</vdop><extensions><gom:speed>0.064</gom:speed><gom:course>326.864</gom:course><gom:rel_alt>2.296</gom:rel_alt></extensions></trkpt>
   <trkpt lat="59.3546371463" lon="34.6798572909"><ele>175.038</ele><time>2026-08-13T23:19:33.998Z</time><hdop>4.687</hdop><vdop>4.75</vdop><extensions><gom:speed>0.0</gom:speed><gom:course>355.078</gom:course><gom:rel_alt>2.045</gom:rel_alt></extensions></trkpt>
   <trkpt lat="59.3547088534" lon="34.6797420398"><ele>175.28</ele><time>2026-08-13T23:22:11.999Z</time><hdop>4.687</hdop><vdop>5.187</vdop><extensions><gom:speed>0.481</gom:speed><gom:course>322.821</gom:course><gom:rel_alt>2.814</gom:rel_alt></extensions></trkpt>
   <trkpt lat="59.3547805606" lon="34.6796274591"><ele>176.994</ele><time>2026-08-13T23:22:43.999Z</time><hdop>4.687</hdop><vdop>5.25</vdop><extensions><gom:speed>0.323</gom:speed><gom:course>352.622</gom:course><gom:rel_alt>2.901</gom:rel_alt></extensions></trkpt>
   <trkpt lat="59.3547565465" lon="34.6794490922"><ele>173.187</ele><time>2026-08-13T23:23:43.998Z</time><hdop>4.687</hdop><vdop>5.187</vdop><extensions><gom:speed>0.655</gom:speed><gom:course>232.688</gom:course></extensions></trkpt>
   <trkpt lat="59.3547307721" lon="34.679276425"><ele>173.895</ele><time>2026-08-13T23:24:09.999Z</time><hdop>4.687</hdop><vdop>5.125</vdop><extensions><gom:speed>0.042</gom:speed><gom:course>302.293</gom:course><gom:rel_alt>3.704</gom:rel_alt></extensions></trkpt>
   <trkpt lat="59.3548039042" lon="34.6791666221"><ele>176.289</ele><time>2026-08-13T23:24:42.999Z</time><hdop>4.687</hdop><vdop>5.0</vdop><extensions><gom:speed>0.2</gom:speed><gom:course>297.475</gom:course><gom:rel_alt>3.596</gom:rel_alt></extensions></trkpt>
   <trkpt lat="59.3547719273" lon="34.6789972238"><ele>173.793</ele><time>2026-08-13T23:26:03.998Z</time><hdop>4.687</hdop><vdop>4.25</vdop><extensions><gom:speed>0.723</gom:speed><gom:course>247.306</gom:course><gom:rel_alt>3.894</gom:rel_alt></extensions></trkpt>
   <trkpt lat="59.3546856775" lon="34.6789405622"><ele>173.372</ele><time>2026-08-13T23:26:19.000Z</time><hdop>4.687</hdop><vdop>4.0</vdop><extensions><gom:speed>0.202</gom:speed><gom:course>209.666</gom:course><gom:rel_alt>4.137</gom:rel_alt></extensions></trkpt>
   <trkpt lat="59.3547779622" lon="34.6788998261"><ele>174.96</ele><time>2026-08-13T23:27:04.999Z</time><hdop>4.687</hdop><vdop>5.437</vdop><extensions><gom:speed>0.087</gom:speed><gom:course>209.666</gom:course><gom:rel_alt>4.349</gom:rel_alt></extensions></trkpt>
   <trkpt lat="59.354851723" lon="34.6787874248"><ele>175.487</ele><time>2026-08-13T23:27:25.999Z</time><hdop>4.687</hdop><vdop>5.25</vdop><extensions><gom:speed>0.058</gom:speed><gom:course>211.116</gom:course><gom:rel_alt>3.974</gom:rel_alt></extensions></trkpt>
   <trkpt lat="59.354941577" lon="34.6787413243"><ele>172.347</ele><time>2026-08-13T23:28:07.998Z</time><hdop>4.687</hdop><vdop>5.187</vdop><extensions><gom:speed>0.048</gom:speed><gom:course>211.116</gom:course><gom:rel_alt>3.622</gom:rel_alt></extensions></trkpt>
   <trkpt lat="59.3550268628" lon="34.6788122352"><ele>172.062</ele><time>2026-08-13T23:30:01.998Z</time><hdop>4.687</hdop><vdop>5.25</vdop><extensions><gom:speed>0.043</gom:speed><gom:course>215.203</gom:course><gom:rel_alt>3.102</gom:rel_alt></extensions></trkpt>
   <trkpt lat="59.3551056527" lon="34.6789115608"><ele>171.605</ele><time>2026-08-13T23:30:23.999Z</time><hdop>4.687</hdop><vdop>5.312</vdop><extensions><gom:speed>0.042</gom:speed><gom:course>215.203</gom:course></extensions></trkpt>
   <trkpt lat="59.3551673435" lon="34.679043911"><ele>174.195</ele><time>2026-08-13T23:31:39.999Z</time><hdop>4.687</hdop><vdop>5.312</vdop><extensions><gom:speed>0.218</gom:speed><gom:course>83.486</gom:course><gom:rel_alt>3.561</gom:rel_alt></extensions></trkpt>
   <trkpt lat="59.3552262264" lon="34.6791895047"><ele>174.537</ele><time>2026-08-13T23:32:03.999Z</time><hdop>4.687</hdop><vdop>5.875</vdop><extensions><gom:speed>0.545</gom:speed><gom:course>73.757</gom:course><gom:rel_alt>3.535</gom:rel_alt></extensions></trkpt>
   <trkpt lat="59.3552731232" lon="34.6793423906"><ele>173.459</ele><time>2026-08-13T23:32:19.998Z</time><hdop>4.687</hdop><vdop>5.562</vdop><extensions><gom:speed>0.465</gom:speed><gom:course>62.441</gom:course><gom:rel_alt>3.347</gom:rel_alt></extensions></trkpt>
   <trkpt lat="59.3553202295" lon="34.6795397006"><ele>173.615</ele><time>2026-08-13T23:32:36.000Z</time><hdop>4.687</hdop><vdop>5.437</vdop><extensions><gom:speed>1.598</gom:speed><gom:course>57.618</gom:course><gom:rel_alt>3.271</gom:rel_alt></extensions></trkpt>
   <trkpt lat="59.3553041781" lon="34.6797160559"><ele>174.251</ele><time>2026-08-13T23:33:06.999Z</time><hdop>4.687</hdop><vdop>5.5</vdop><extensions><gom:speed>0.341</gom:speed><gom:course>117.116</gom:course><gom:rel_alt>3.458</gom:rel_alt></extensions></trkpt>
   <trkpt lat="59.3552415653" lon="34.6798687741"><ele>172.939</ele><time>2026-08-13T23:33:47.999Z</time><hdop>4.687</hdop><vdop>4.75</vdop><extensions><gom:speed>0.375</gom:speed><gom:course>126.009</gom:course><gom:rel_alt>3.767</gom:rel_alt></extensions></trkpt>
   <trkpt lat="59.3552792839" lon="34.6800378371"><ele>171.326</ele><time>2026-08-13T23:34:49.999Z</time><hdop>4.687</hdop><vdop>5.125</vdop><extensions><gom:speed>0.036</gom:speed><gom:course>198.504</gom:course><gom:rel_alt>4.343</gom:rel_alt></extensions></trkpt>
   <trkpt lat="59.355313943" lon="34.680206481"><ele>171.071</ele><time>2026-08-13T23:35:19.999Z</time><hdop>4.687</hdop><vdop>5.625</vdop><extensions><gom:speed>0.455</gom:speed><gom:course>74.158</gom:course><gom:rel_alt>4.581</gom:rel_alt></extensions></trkpt>
   <trkpt lat="59.3552881268" lon="34.680375544"><ele>172.663</ele><time>2026-08-13T23:35:52.999Z</time><hdop>4.687</hdop><vdop>3.937</vdop><extensions><gom:speed>0.103</gom:speed><gom:course>75.779</gom:course><gom:rel_alt>4.402</gom:rel_alt></extensions></trkpt>
   <trkpt lat="59.355220862" lon="34.6804956567"><ele>174.452</ele><time>2026-08-13T23:37:13.999Z</time><hdop>4.687</hdop><vdop>5.312</vdop><extensions><gom:speed>0.43</gom:speed><gom:course>100.476</gom:course><gom:rel_alt>3.974</gom:rel_alt></extensions></trkpt>
   <trkpt lat="59.3551999911" lon="34.6806674019"><ele>175.508</ele><time>2026-08-13T23:37:32.999Z</time><hdop>4.687</hdop><vdop>5.187</vdop><extensions><gom:speed>0.602</gom:speed><gom:course>100.273</gom:course><gom:rel_alt>3.498</gom:rel_alt></extensions></trkpt>
   <trkpt lat="59.3551196505" lon="34.6807687391"><ele>175.26</ele><time>2026-08-13T23:38:00.999Z</time><hdop>4.687</hdop><vdop>4.937</vdop><extensions><gom:speed>0.335</gom:speed><gom:course>148.075</gom:course><gom:rel_alt>3.511</gom:rel_alt></extensions></trkpt>
   <trkpt lat="59.3551020485" lon="34.680944759"><ele>176.137</ele><time>2026-08-13T23:38:23.998Z</time><hdop>4.687</hdop><vdop>4.812</vdop><extensions><gom:speed>0.565</gom:speed><gom:course>92.495</gom:course><gom:rel_alt>3.228</gom:rel_alt></extensions></trkpt>
   <trkpt lat="59.3551393899" lon="34.6811127324"><ele>174.564</ele><time>2026-08-13T23:38:42.999Z</time><hdop>4.687</hdop><vdop>4.75</vdop><extensions><gom:speed>0.63</gom:speed><gom:course>62.721</gom:course><gom:rel_alt>3.371</gom:rel_alt></extensions></trkpt>
   <trkpt lat="59.3551623563" lon="34.6812844776"><ele>175.066</ele><time>2026-08-13T23:39:26.999Z</time><hdop>4.687</hdop><vdop>4.937</vdop><extensions><gom:speed>0.341</gom:speed><gom:course>117.517</gom:course><gom:rel_alt>3.395</gom:rel_alt></extensions></trkpt>
   <trkpt lat="59.3551610152" lon="34.6814722322"><ele>180.036</ele><time>2026-08-13T23:40:00.999Z</time><hdop>4.687</hdop><vdop>4.187</vdop><extensions><gom:speed>0.071</gom:speed><gom:course>65.973</gom:course><gom:rel_alt>3.39</gom:rel_alt></extensions></trkpt>
   <trkpt lat="59.3551295831" lon="34.6816397026"><ele>172.044</ele><time>2026-08-13T23:44:43.998Z</time><hdop>4.687</hdop><vdop>5.375</vdop><extensions><gom:speed>0.759</gom:speed><gom:course>100.625</gom:course><gom:rel_alt>3.487</gom:rel_alt></extensions></trkpt>
   <trkpt lat="59.3551222489" lon="34.6818184886"><ele>173.354</ele><time>2026-08-13T23:45:08.000Z</time><hdop>4.687</hdop><vdop>5.562</vdop><extensions><gom:speed>0.372</gom:speed><gom:course>113.309</gom:course><gom:rel_alt>3.691</gom:rel_alt></extensions></trkpt>
   <trkpt lat="59.355143497" lon="34.6819929999"><ele>173.638</ele><time>2026-08-13T23:45:29.999Z</time><hdop>4.687</hdop><vdop>5.687</vdop><extensions><gom:speed>0.72</gom:speed><gom:course>58.508</gom:course><gom:rel_alt>3.601</gom:rel_alt></extensions></trkpt>
   <trkpt lat="59.355134696" lon="34.6821765635"><ele>173.219</ele><time>2026-08-13T23:45:48.999Z</time><hdop>4.687</hdop><vdop>5.375</vdop><extensions><gom:speed>0.569</gom:speed><gom:course>129.739</gom:course><gom:rel_alt>3.461</gom:rel_alt></extensions></trkpt>
   <trkpt lat="59.3550732148" lon="34.682307908"><ele>175.987</ele><time>2026-08-13T23:46:09.999Z</time><hdop>4.687</hdop><vdop>5.187</vdop><extensions><gom:speed>0.597</gom:speed><gom:course>115.089</gom:course><gom:rel_alt>3.654</gom:rel_alt></extensions></trkpt>
   <trkpt lat="59.3551022162" lon="34.6824874483"><ele>175.657</ele><time>2026-08-13T23:46:45.998Z</time><hdop>4.687</hdop><vdop>5.125</vdop><extensions><gom:speed>0.574</gom:speed><gom:course>55.212</gom:course><gom:rel_alt>3.796</gom:rel_alt></extensions></trkpt>
   <trkpt lat="59.3550970194" lon="34.6826641388"><ele>174.314</ele><time>2026-08-13T23:47:21.999Z</time><hdop>4.687</hdop><vdop>5.062</vdop><extensions><gom:speed>0.489</gom:speed><gom:course>83.469</gom:course><gom:rel_alt>3.794</gom:rel_alt></extensions></trkpt>
   <trkpt lat="59.3550576663" lon="34.6828283403"><ele>174.934</ele><time>2026-08-13T23:47:38.999Z</time><hdop>4.687</hdop><vdop>4.812</vdop><extensions><gom:speed>0.59</gom:speed><gom:course>136.891</gom:course><gom:rel_alt>3.778</gom:rel_alt></extensions></trkpt>
   <trkpt lat="59.3550010047" lon="34.6829724252"><ele>173.457</ele><time>2026-08-13T23:48:04.999Z</time><hdop>4.687</hdop><vdop>5.062</vdop><extensions><gom:speed>0.574</gom:speed><gom:course>116.687</gom:course><gom:rel_alt>3.662</gom:rel_alt></extensions></trkpt>
   <trkpt lat="59.3549922037" lon="34.6831535582"><ele>174.244</ele><time>2026-08-13T23:48:24.999Z</time><hdop>4.687</hdop><vdop>5.0</vdop><extensions><gom:speed>0.695</gom:speed><gom:course>126.959</gom:course><gom:rel_alt>3.532</gom:rel_alt></extensions></trkpt>
   <trkpt lat="59.3549931676" lon="34.68333796"><ele>172.263</ele><time>2026-08-13T23:48:54.998Z</time><hdop>4.687</hdop><vdop>5.375</vdop><extensions><gom:speed>0.463</gom:speed><gom:course>101.927</gom:course><gom:rel_alt>3.612</gom:rel_alt></extensions></trkpt>
   <trkpt lat="59.3550206183" lon="34.6835195959"><ele>172.932</ele><time>2026-08-13T23:55:46.999Z</time><hdop>4.687</hdop><vdop>3.0</vdop><extensions><gom:speed>0.805</gom:speed><gom:course>85.469</gom:course><gom:rel_alt>3.162</gom:rel_alt></extensions></trkpt>
   <trkpt lat="59.3549469414" lon="34.6836382836"><ele>173.24</ele><time>2026-08-13T23:56:07.999Z</time><hdop>4.687</hdop><vdop>4.25</vdop><extensions><gom:speed>0.353</gom:speed><gom:course>40.364</gom:course><gom:rel_alt>3.062</gom:rel_alt></extensions></trkpt>
   <trkpt lat="59.3549204127" lon="34.68381598"><ele>170.86</ele><time>2026-08-13T23:56:52.999Z</time><hdop>4.687</hdop><vdop>5.062</vdop><extensions><gom:speed>0.222</gom:speed><gom:course>19.781</gom:course><gom:rel_alt>3.725</gom:rel_alt></extensions></trkpt>
   <trkpt lat="59.3548892739" lon="34.6839821931"><ele>171.47</ele><time>2026-08-13T23:57:12.998Z</time><hdop>4.687</hdop><vdop>4.375</vdop><extensions><gom:speed>0.191</gom:speed><gom:course>25.186</gom:course><gom:rel_alt>3.815</gom:rel_alt></extensions></trkpt>
   <trkpt lat="59.3548440955" lon="34.6841401082"><ele>171.79</ele><time>2026-08-13T23:57:27.998Z</time><hdop>4.687</hdop><vdop>3.75</vdop><extensions><gom:speed>0.685</gom:speed><gom:course>136.781</gom:course><gom:rel_alt>4.05</gom:rel_alt></extensions></trkpt>
   <trkpt lat="59.35485034" lon="34.6843292877"><ele>173.292</ele><time>2026-08-13T23:57:51.999Z</time><hdop>4.687</hdop><vdop>3.187</vdop><extensions><gom:speed>0.435</gom:speed><gom:course>132.749</gom:course><gom:rel_alt>3.971</gom:rel_alt></extensions></trkpt>
   <trkpt lat="59.3548676486" lon="34.6845028769"><ele>174.159</ele><time>2026-08-13T23:58:39.999Z</time><hdop>4.687</hdop><vdop>3.687</vdop><extensions><gom:speed>0.621</gom:speed><gom:course>138.149</gom:course><gom:rel_alt>4.547</gom:rel_alt></extensions></trkpt>
   <trkpt lat="59.3549216281" lon="34.6846975047"><ele>173.828</ele><time>2026-08-13T23:59:15.998Z</time><hdop>4.687</hdop><vdop>4.437</vdop><extensions><gom:speed>0.684</gom:speed><gom:course>55.608</gom:course><gom:rel_alt>5.046</gom:rel_alt></extensions></trkpt>
   <trkpt lat="59.354854028" lon="34.6848384045"><ele>173.408</ele><time>2026-08-13T23:59:29.998Z</time><hdop>4.687</hdop><vdop>4.25</vdop><extensions><gom:speed>0.856</gom:speed><gom:course>142.264</gom:course><gom:rel_alt>5.334</gom:rel_alt></extensions></trkpt>
   <trkpt lat="59.3548139625" lon="34.6850089763"><ele>175.444</ele><time>2026-08-13T23:59:57.999Z</time><hdop>4.687</hdop><vdop>4.25</vdop><extensions><gom:speed>0.666</gom:speed><gom:course>166.802</gom:course><gom:rel_alt>5.63</gom:rel_alt></extensions></trkpt>
   <trkpt lat="59.3548267868" lon="34.685195306"><ele>174.3</ele><time>2026-08-14T00:00:13.999Z</time><hdop>4.687</hdop><vdop>3.5</vdop><extensions><gom:speed>0.6</gom:speed><gom:course>82.876</gom:course><gom:rel_alt>5.757</gom:rel_alt></extensions></trkpt>
   <trkpt lat="59.3547862184" lon="34.6853562385"><ele>176.425</ele><time>2026-08-14T00:00:53.999Z</time><hdop>4.687</hdop><vdop>4.312</vdop><extensions><gom:speed>0.228</gom:speed><gom:course>139.676</gom:course><gom:rel_alt>6.037</gom:rel_alt></extensions></trkpt>
   <trkpt lat="59.354751685" lon="34.6855298277"><ele>175.991</ele><time>2026-08-14T00:01:15.999Z</time><hdop>4.687</hdop><vdop>3.312</vdop><extensions><gom:speed>0.494</gom:speed><gom:course>169.203</gom:course><gom:rel_alt>6.013</gom:rel_alt></extensions></trkpt>
   <trkpt lat="59.3547048301" lon="34.685693191"><ele>172.312</ele><time>2026-08-14T00:01:49.000Z</time><hdop>4.687</hdop><vdop>4.25</vdop><extensions><gom:speed>0.195</gom:speed><gom:course>191.088</gom:course><gom:rel_alt>5.987</gom:rel_alt></extensions></trkpt>
   <trkpt lat="59.3546446481" lon="34.6858545426"><ele>172.947</ele><time>2026-08-14T00:02:20.999Z</time><hdop>4.687</hdop><vdop>3.375</vdop><extensions><gom:speed>0.527</gom:speed><gom:course>174.745</gom:course><gom:rel_alt>5.963</gom:rel_alt></extensions></trkpt>
   <trkpt lat="59.3545846755" lon="34.6859884855"><ele>173.852</ele><time>2026-08-14T00:02:41.999Z</time><hdop>4.687</hdop><vdop>3.375</vdop><extensions><gom:speed>0.568</gom:speed><gom:course>108.376</gom:course><gom:rel_alt>5.773</gom:rel_alt></extensions></trkpt>
   <trkpt lat="59.3545913811" lon="34.6861702051"><ele>175.048</ele><time>2026-08-14T00:03:09.999Z</time><hdop>4.687</hdop><vdop>3.062</vdop><extensions><gom:speed>0.49</gom:speed><gom:course>98.625</gom:course><gom:rel_alt>5.258</gom:rel_alt></extensions></trkpt>
   <trkpt lat="59.3546171973" lon="34.6863429561"><ele>174.854</ele><time>2026-08-14T00:03:31.998Z</time><hdop>4.687</hdop><vdop>3.625</vdop><extensions><gom:speed>0.498</gom:speed><gom:course>80.091</gom:course><gom:rel_alt>4.513</gom:rel_alt></extensions></trkpt>
   <trkpt lat="59.3545471246" lon="34.6864705287"><ele>176.008</ele><time>2026-08-14T00:03:49.998Z</time><hdop>4.687</hdop><vdop>3.125</vdop><extensions><gom:speed>0.488</gom:speed><gom:course>142.753</gom:course><gom:rel_alt>3.781</gom:rel_alt></extensions></trkpt>
   <trkpt lat="59.3545889922" lon="34.6866396755"><ele>173.158</ele><time>2026-08-14T00:04:39.999Z</time><hdop>4.687</hdop><vdop>3.812</vdop><extensions><gom:speed>0.219</gom:speed><gom:course>150.883</gom:course><gom:rel_alt>3.176</gom:rel_alt></extensions></trkpt>
   <trkpt lat="59.3545267147" lon="34.6867830061"><ele>172.737</ele><time>2026-08-14T00:04:51.999Z</time><hdop>4.687</hdop><vdop>4.125</vdop><extensions><gom:speed>0.221</gom:speed><gom:course>116.27</gom:course><gom:rel_alt>2.991</gom:rel_alt></extensions></trkpt>
   <trkpt lat="59.3544744954" lon="34.6869265042"><ele>173.201</ele><time>2026-08-14T00:05:05.999Z</time><hdop>4.687</hdop><vdop>4.125</vdop><extensions><gom:speed>0.646</gom:speed><gom:course>158.265</gom:course></extensions></trkpt>
   <trkpt lat="59.3545556323" lon="34.68701091"><ele>172.232</ele><time>2026-08-14T00:05:27.998Z</time><hdop>4.687</hdop><vdop>3.375</vdop><extensions><gom:speed>0.202</gom:speed><gom:course>146.702</gom:course><gom:rel_alt>2.317</gom:rel_alt></extensions></trkpt>
   <trkpt lat="59.3545291454" lon="34.6871858403"><ele>173.852</ele><time>2026-08-14T00:05:57.998Z</time><hdop>4.687</hdop><vdop>3.437</vdop><extensions><gom:speed>0.215</gom:speed><gom:course>101.652</gom:course></extensions></trkpt>
   <trkpt lat="59.3545350966" lon="34.6873787917"><ele>171.853</ele><time>2026-08-14T00:06:20.999Z</time><hdop>4.687</hdop><vdop>3.375</vdop><extensions><gom:speed>0.589</gom:speed><gom:course>138.017</gom:course><gom:rel_alt>2.071</gom:rel_alt></extensions></trkpt>
   <trkpt lat="59.3544943186" lon="34.687578281"><ele>174.515</ele><time>2026-08-14T00:07:00.999Z</time><hdop>4.687</hdop><vdop>3.25</vdop><extensions><gom:speed>0.63</gom:speed><gom:course>136.677</gom:course><gom:rel_alt>2.23</gom:rel_alt></extensions></trkpt>
   <trkpt lat="59.3544066439" lon="34.6876609266"><ele>173.383</ele><time>2026-08-14T00:07:24.999Z</time><hdop>4.687</hdop><vdop>3.875</vdop><extensions><gom:speed>0.657</gom:speed><gom:course>135.106</gom:course><gom:rel_alt>2.549</gom:rel_alt></extensions></trkpt>
   <trkpt lat="59.3544240783" lon="34.687842311"><ele>170.378</ele><time>2026-08-14T00:08:09.999Z</time><hdop>4.687</hdop><vdop>4.187</vdop><extensions><gom:speed>0.81</gom:speed><gom:course>56.97</gom:course><gom:rel_alt>3.144</gom:rel_alt></extensions></trkpt>
   <trkpt lat="59.3544261318" lon="34.6880234439"><ele>171.765</ele><time>2026-08-14T00:08:22.999Z</time><hdop>4.687</hdop><vdop>4.375</vdop><extensions><gom:speed>0.302</gom:speed><gom:course>108.585</gom:course><gom:rel_alt>3.395</gom:rel_alt></extensions></trkpt>
   <trkpt lat="59.3545195482" lon="34.6880195044"><ele>173.142</ele><time>2026-08-14T00:08:40.999Z</time><hdop>4.687</hdop><vdop>3.937</vdop><extensions><gom:speed>0.485</gom:speed><gom:course>44.259</gom:course><gom:rel_alt>2.969</gom:rel_alt></extensions></trkpt>
   <trkpt lat="59.3545253317" lon="34.6882000506"><ele>173.671</ele><time>2026-08-14T00:08:55.999Z</time><hdop>4.687</hdop><vdop>4.562</vdop><extensions><gom:speed>0.483</gom:speed><gom:course>82.228</gom:course><gom:rel_alt>2.716</gom:rel_alt></extensions></trkpt>
   <trkpt lat="59.3544849728" lon="34.6883627434"><ele>171.48</ele><time>2026-08-14T00:09:10.999Z</time><hdop>4.687</hdop><vdop>4.812</vdop><extensions><gom:speed>0.648</gom:speed><gom:course>111.672</gom:course><gom:rel_alt>2.568</gom:rel_alt></extensions></trkpt>
   <trkpt lat="59.3544615035" lon="34.6885498274"><ele>174.034</ele><time>2026-08-14T00:09:49.998Z</time><hdop>4.687</hdop><vdop>3.25</vdop><extensions><gom:speed>0.656</gom:speed><gom:course>91.978</gom:course><gom:rel_alt>2.005</gom:rel_alt></extensions></trkpt>
   <trkpt lat="59.3544818715" lon="34.6887646556"><ele>172.76</ele><time>2026-08-14T00:10:00.998Z</time><hdop>4.687</hdop><vdop>3.0</vdop><extensions><gom:speed>0.737</gom:speed><gom:course>104.52</gom:course><gom:rel_alt>2.124</gom:rel_alt></extensions></trkpt>
   <trkpt lat="59.354395957" lon="34.6888406795"><ele>172.316</ele><time>2026-08-14T00:10:18.999Z</time><hdop>4.687</hdop><vdop>4.25</vdop><extensions><gom:speed>0.322</gom:speed><gom:course>120.922</gom:course><gom:rel_alt>2.489</gom:rel_alt></extensions></trkpt>
   <trkpt lat="59.354366327" lon="34.6890213933"><ele>172.898</ele><time>2026-08-14T00:10:34.999Z</time><hdop>4.687</hdop><vdop>4.0</vdop><extensions><gom:speed>0.623</gom:speed><gom:course>126.037</gom:course></extensions></trkpt>
   <trkpt lat="59.3543141496" lon="34.6891661488"><ele>172.916</ele><time>2026-08-14T00:10:53.999Z</time><hdop>4.687</hdop><vdop>4.375</vdop><extensions><gom:speed>0.359</gom:speed><gom:course>150.081</gom:course><gom:rel_alt>2.568</gom:rel_alt></extensions></trkpt>
   <trkpt lat="59.3542343539" lon="34.6892779634"><ele>172.814</ele><time>2026-08-14T00:12:05.998Z</time><hdop>4.687</hdop><vdop>3.812</vdop><extensions><gom:speed>0.063</gom:speed><gom:course>162.204</gom:course><gom:rel_alt>2.552</gom:rel_alt></extensions></trkpt>
   <trkpt lat="59.3541814641" lon="34.6894363813"><ele>173.88</ele><time>2026-08-14T00:13:23.999Z</time><hdop>4.687</hdop><vdop>4.687</vdop><extensions><gom:speed>0.774</gom:speed><gom:course>158.002</gom:course><gom:rel_alt>2.811</gom:rel_alt></extensions></trkpt>
   <trkpt lat="59.3541881277" lon="34.6896216214"><ele>172.934</ele><time>2026-08-14T00:15:41.999Z</time><hdop>4.687</hdop><vdop>3.812</vdop><extensions><gom:speed>0.831</gom:speed><gom:course>108.991</gom:course><gom:rel_alt>2.547</gom:rel_alt></extensions></trkpt>
   <trkpt lat="59.3541518341" lon="34.689800575"><ele>172.893</ele><time>2026-08-14T00:16:02.998Z</time><hdop>4.687</hdop><vdop>5.437</vdop><extensions><gom:speed>1.322</gom:speed><gom:course>86.353</gom:course><gom:rel_alt>2.499</gom:rel_alt></extensions></trkpt>
   <trkpt lat="59.3540779057" lon="34.6899185084"><ele>173.048</ele><time>2026-08-14T00:16:24.998Z</time><hdop>4.687</hdop><vdop>3.5</vdop><extensions><gom:speed>0.97</gom:speed><gom:course>111.018</gom:course><gom:rel_alt>2.504</gom:rel_alt></extensions></trkpt>
   <trkpt lat="59.3541339806" lon="34.6900574804"><ele>172.476</ele><time>2026-08-14T00:17:07.999Z</time><hdop>4.687</hdop><vdop>5.0</vdop><extensions><gom:speed>0.969</gom:speed><gom:course>64.721</gom:course><gom:rel_alt>3.051</gom:rel_alt></extensions></trkpt>
   <trkpt lat="59.354123629" lon="34.6902553771"><ele>171.448</ele><time>2026-08-14T00:17:42.999Z</time><hdop>4.687</hdop><vdop>4.312</vdop><extensions><gom:speed>0.393</gom:speed><gom:course>89.199</gom:course><gom:rel_alt>3.379</gom:rel_alt></extensions></trkpt>
   <trkpt lat="59.3540919873" lon="34.6904411201"><ele>172.247</ele><time>2026-08-14T00:18:09.998Z</time><hdop>4.687</hdop><vdop>4.75</vdop><extensions><gom:speed>0.04</gom:speed><gom:course>337.005</gom:course><gom:rel_alt>3.368</gom:rel_alt></extensions></trkpt>
   <trkpt lat="59.3540550231" lon="34.6906281203"><ele>171.239</ele><time>2026-08-14T00:18:43.999Z</time><hdop>4.687</hdop><vdop>3.0</vdop><extensions><gom:speed>0.173</gom:speed><gom:course>347.557</gom:course><gom:rel_alt>3.337</gom:rel_alt></extensions></trkpt>
   <trkpt lat="59.3540020495" lon="34.6907784917"><ele>173.134</ele><time>2026-08-14T00:19:04.999Z</time><hdop>4.687</hdop><vdop>3.562</vdop><extensions><gom:speed>0.0</gom:speed><gom:course>347.063</gom:course><gom:rel_alt>3.622</gom:rel_alt></extensions></trkpt>
   <trkpt lat="59.353986501" lon="34.6909690123"><ele>172.559</ele><time>2026-08-14T00:19:41.999Z</time><hdop>4.687</hdop><vdop>4.562</vdop><extensions><gom:speed>0.474</gom:speed><gom:course>92.94</gom:course><gom:rel_alt>4.119</gom:rel_alt></extensions></trkpt>
   <trkpt lat="59.3539445915" lon="34.6911800686"><ele>172.682</ele><time>2026-08-14T00:19:58.999Z</time><hdop>4.687</hdop><vdop>4.125</vdop><extensions><gom:speed>0.259</gom:speed><gom:course>121.757</gom:course><gom:rel_alt>3.786</gom:rel_alt></extensions></trkpt>
   <trkpt lat="59.3538642929" lon="34.6913130056"><ele>173.698</ele><time>2026-08-14T00:20:22.998Z</time><hdop>4.687</hdop><vdop>3.687</vdop><extensions><gom:speed>0.401</gom:speed><gom:course>106.959</gom:course></extensions></trkpt>
   <trkpt lat="59.3538895224" lon="34.6914881874"><ele>174.348</ele><time>2026-08-14T00:20:52.999Z</time><hdop>4.687</hdop><vdop>4.062</vdop><extensions><gom:speed>0.53</gom:speed><gom:course>92.599</gom:course><gom:rel_alt>2.388</gom:rel_alt></extensions></trkpt>
   <trkpt lat="59.3538461041" lon="34.6916470245"><ele>172.893</ele><time>2026-08-14T00:21:50.999Z</time><hdop>4.687</hdop><vdop>3.0</vdop><extensions><gom:speed>1.056</gom:speed><gom:course>142.368</gom:course><gom:rel_alt>2.808</gom:rel_alt></extensions></trkpt>
   <trkpt lat="59.3539173922" lon="34.6915313542"><ele>171.753</ele><time>2026-08-14T00:22:13.999Z</time><hdop>4.687</hdop><vdop>3.562</vdop><extensions><gom:speed>0.992</gom:speed><gom:course>332.061</gom:course><gom:rel_alt>2.282</gom:rel_alt></extensions></trkpt>
   <trkpt lat="59.3539467708" lon="34.6916979026"><ele>173.699</ele><time>2026-08-14T00:22:33.998Z</time><hdop>4.687</hdop><vdop>3.0</vdop><extensions><gom:speed>0.051</gom:speed><gom:course>194.395</gom:course><gom:rel_alt>2.29</gom:rel_alt></extensions></trkpt>
   <trkpt lat="59.3540043964" lon="34.6918359526"><ele>171.989</ele><time>2026-08-14T00:23:04.999Z</time><hdop>4.687</hdop><vdop>3.5</vdop><extensions><gom:speed>0.529</gom:speed><gom:course>42.221</gom:course><gom:rel_alt>1.957</gom:rel_alt></extensions></trkpt>
   <trkpt lat="59.3540096351" lon="34.6920243778"><ele>172.173</ele><time>2026-08-14T00:23:16.999Z</time><hdop>4.687</hdop><vdop>3.687</vdop><extensions><gom:speed>0.356</gom:speed><gom:course>70.983</gom:course></extensions></trkpt>
   <trkpt lat="59.3540026781" lon="34.6922071871"><ele>171.365</ele><time>2026-08-14T00:23:29.999Z</time><hdop>4.687</hdop><vdop>3.0</vdop><extensions><gom:speed>0.427</gom:speed><gom:course>110.919</gom:course><gom:rel_alt>1.403</gom:rel_alt></extensions></trkpt>
   <trkpt lat="59.3539984452" lon="34.6923975401"><ele>171.281</ele><time>2026-08-14T00:24:34.998Z</time><hdop>4.687</hdop><vdop>3.375</vdop><extensions><gom:speed>0.448</gom:speed><gom:course>99.669</gom:course><gom:rel_alt>1.146</gom:rel_alt></extensions></trkpt>
   <trkpt lat="59.3540634888" lon="34.6925350871"><ele>172.613</ele><time>2026-08-14T00:25:12.999Z</time><hdop>4.687</hdop><vdop>3.375</vdop><extensions><gom:speed>0.378</gom:speed><gom:course>76.509</gom:course><gom:rel_alt>0.864</gom:rel_alt></extensions></trkpt>
   <trkpt lat="59.3539739701" lon="34.6925135456"><ele>173.512</ele><time>2026-08-14T00:25:59.999Z</time><hdop>4.687</hdop><vdop>3.187</vdop><extensions><gom:speed>0.129</gom:speed><gom:course>96.983</gom:course><gom:rel_alt>0.961</gom:rel_alt></extensions></trkpt>
   <trkpt lat="59.3538824816" lon="34.6925202511"><ele>172.746</ele><time>2026-08-14T00:26:37.998Z</time><hdop>4.687</hdop><vdop>4.125</vdop><extensions><gom:speed>0.545</gom:speed><gom:course>137.891</gom:course><gom:rel_alt>0.848</gom:rel_alt></extensions></trkpt>
   <trkpt lat="59.353853103" lon="34.6926873025"><ele>173.996</ele><time>2026-08-14T00:26:52.998Z</time><hdop>4.687</hdop><vdop>4.125</vdop><extensions><gom:speed>0.44</gom:speed><gom:course>99.411</gom:course><gom:rel_alt>1.096</gom:rel_alt></extensions></trkpt>
   <trkpt lat="59.3538559529" lon="34.6928703632"><ele>171.859</ele><time>2026-08-14T00:27:10.999Z</time><hdop>4.687</hdop><vdop>4.5</vdop><extensions><gom:speed>0.51</gom:speed><gom:course>146.059</gom:course><gom:rel_alt>1.117</gom:rel_alt></extensions></trkpt>
   <trkpt lat="59.3538671846" lon="34.6930470538"><ele>172.766</ele><time>2026-08-14T00:27:38.999Z</time><hdop>4.687</hdop><vdop>4.312</vdop><extensions><gom:speed>0.428</gom:speed><gom:course>96.758</gom:course><gom:rel_alt>1.046</gom:rel_alt></extensions></trkpt>
   <trkpt lat="59.3538695316" lon="34.693226175"><ele>171.69</ele><time>2026-08-14T00:28:02.999Z</time><hdop>4.687</hdop><vdop>4.062</vdop><extensions><gom:speed>0.301</gom:speed><gom:course>92.022</gom:course><gom:rel_alt>0.837</gom:rel_alt></extensions></trkpt>
   <trkpt lat="59.3538561624" lon="34.6934006024"><ele>174.552</ele><time>2026-08-14T00:28:19.999Z</time><hdop>4.687</hdop><vdop>4.437</vdop><extensions><gom:speed>0.094</gom:speed><gom:course>86.71</gom:course><gom:rel_alt>0.544</gom:rel_alt></extensions></trkpt>
   <trkpt lat="59.3538357944" lon="34.6935792208"><ele>176.016</ele><time>2026-08-14T00:28:53.998Z</time><hdop>4.687</hdop><vdop>4.812</vdop><extensions><gom:speed>0.245</gom:speed><gom:course>47.758</gom:course><gom:rel_alt>0.044</gom:rel_alt></extensions></trkpt>
   <trkpt lat="59.3538592637" lon="34.6937730942"><ele>175.089</ele><time>2026-08-14T00:33:31.999Z</time><hdop>4.687</hdop><vdop>4.5</vdop><extensions><gom:speed>0.085</gom:speed><gom:course>71.538</gom:course><gom:rel_alt>-0.06</gom:rel_alt></extensions></trkpt>
   <trkpt lat="59.3538702021" lon="34.6935980801"><ele>173.278</ele><time>2026-08-14T00:34:48.998Z</time><hdop>4.687</hdop><vdop>4.687</vdop><extensions><gom:speed>0.045</gom:speed><gom:course>201.629</gom:course><gom:rel_alt>0.251</gom:rel_alt></extensions></trkpt>
  </trkseg>
 </trk>
</gpx>